Time;durP1;ratioP1;P1;durP2;ratioP2;P2;SDS_P1;SDS_P2;PMS_P1;PMS_P2;Temp;Humidity;BMP_temperature;BMP_pressure;BME280_temperature;BME280_humidity;BME280_pressure;Samples;Min_cycle;Max_cycle;Signal;HPM_P1;HPM_P2
2022/07/05 00:02:04;;;;;;;3.05;1.98;;;14.70;99.90;;;;;;6217348;23;20020;-70
2022/07/05 00:04:30;;;;;;;4.68;2.60;;;14.70;99.90;;;;;;6217164;23;20020;-70
2022/07/05 00:09:40;;;;;;;3.85;2.22;;;14.70;99.90;;;;;;6190701;23;20023;-69
2022/07/05 00:12:06;;;;;;;4.45;2.58;;;14.60;99.90;;;;;;6217073;23;20402;-69
2022/07/05 00:14:31;;;;;;;3.40;2.17;;;14.60;99.90;;;;;;6216822;23;20354;-70
2022/07/05 00:16:57;;;;;;;7.72;2.28;;;14.50;99.90;;;;;;6217168;23;20102;-71
2022/07/05 00:19:23;;;;;;;4.75;2.22;;;14.50;99.90;;;;;;6217075;23;20325;-70
2022/07/05 00:21:48;;;;;;;3.50;2.15;;;14.50;99.90;;;;;;6217016;23;20374;-70
2022/07/05 00:24:14;;;;;;;4.20;2.35;;;14.50;99.90;;;;;;6216933;23;20397;-70
2022/07/05 00:26:39;;;;;;;5.80;2.28;;;14.50;99.90;;;;;;6190696;23;20013;-70
2022/07/05 00:29:05;;;;;;;3.70;2.45;;;14.40;99.90;;;;;;6216982;23;20485;-70
2022/07/05 00:31:31;;;;;;;4.38;2.22;;;14.40;99.90;;;;;;6190625;23;20025;-70
2022/07/05 00:33:56;;;;;;;6.57;3.00;;;14.40;99.90;;;;;;6216951;23;20028;-70
2022/07/05 00:36:22;;;;;;;3.42;2.10;;;14.40;99.90;;;;;;6216996;23;20036;-70
2022/07/05 00:38:48;;;;;;;4.80;2.63;;;14.40;99.90;;;;;;6189636;23;20059;-70
2022/07/05 00:41:13;;;;;;;5.65;2.33;;;14.40;99.90;;;;;;6216798;23;20031;-70
2022/07/05 00:43:53;;;;;;;3.97;2.00;;;14.40;99.90;;;;;;6216754;23;20071;-70
2022/07/05 00:46:18;;;;;;;4.22;2.47;;;14.30;99.90;;;;;;6190384;23;20051;-70
2022/07/05 00:48:44;;;;;;;3.20;2.25;;;14.20;99.90;;;;;;6216485;23;20373;-70
2022/07/05 00:51:10;;;;;;;3.72;2.70;;;14.30;99.90;;;;;;6216702;23;20021;-70
2022/07/05 00:53:36;;;;;;;4.93;2.42;;;14.30;99.90;;;;;;6216623;23;20520;-69
2022/07/05 00:56:02;;;;;;;3.75;2.20;;;14.40;99.90;;;;;;6216770;23;20020;-70
2022/07/05 00:58:29;;;;;;;2.90;2.00;;;14.30;99.90;;;;;;6216595;23;20016;-70
2022/07/05 01:00:55;;;;;;;3.88;2.10;;;14.40;99.90;;;;;;6216738;23;20028;-70
2022/07/05 01:03:20;;;;;;;3.50;2.28;;;14.40;99.90;;;;;;6216644;23;20020;-70
2022/07/05 01:05:46;;;;;;;5.55;2.08;;;14.40;99.90;;;;;;6216733;23;20012;-70
2022/07/05 01:08:13;;;;;;;4.00;2.40;;;14.40;99.90;;;;;;6190002;23;20342;-70
2022/07/05 01:10:41;;;;;;;3.88;1.90;;;14.30;99.90;;;;;;6216524;23;20021;-70
2022/07/05 01:13:08;;;;;;;4.28;2.00;;;14.40;99.90;;;;;;6216462;23;20020;-70
2022/07/05 01:15:34;;;;;;;8.60;2.42;;;14.30;99.90;;;;;;6216563;23;20063;-70
2022/07/05 01:18:00;;;;;;;4.25;2.25;;;14.30;99.90;;;;;;6190048;23;20047;-70
2022/07/05 01:20:26;;;;;;;;;;;14.20;99.90;;;;;;6216934;23;20024;-70
2022/07/05 01:22:56;;;;;;;3.38;2.10;;;14.20;99.90;;;;;;6216372;23;20240;-71
2022/07/05 01:25:24;;;;;;;2.88;2.08;;;14.30;99.90;;;;;;6216561;23;20021;-70
2022/07/05 01:27:50;;;;;;;7.93;2.53;;;14.30;99.90;;;;;;6216422;23;20016;-70
2022/07/05 01:30:16;;;;;;;5.03;2.95;;;14.30;99.90;;;;;;6190052;23;20021;-70
2022/07/05 01:32:42;;;;;;;;;;;14.10;99.90;;;;;;6190369;23;20020;-70
2022/07/05 01:35:09;;;;;;;4.05;2.25;;;14.10;99.90;;;;;;6216333;23;20386;-70
2022/07/05 01:37:36;;;;;;;7.03;2.20;;;14.10;99.90;;;;;;6216195;23;20020;-70
2022/07/05 01:40:02;;;;;;;;;;;14.10;99.90;;;;;;6216219;23;20447;-70
2022/07/05 01:42:28;;;;;;;3.37;2.60;;;14.10;99.90;;;;;;6216311;23;19970;-70
2022/07/05 01:44:54;;;;;;;4.80;2.55;;;14.10;99.90;;;;;;6216510;23;20244;-70
2022/07/05 01:47:20;;;;;;;4.43;2.15;;;14.10;99.90;;;;;;6216263;23;20023;-70
2022/07/05 01:49:48;;;;;;;5.55;2.55;;;14.10;99.90;;;;;;6215845;23;20016;-70
2022/07/05 01:52:16;;;;;;;4.72;2.83;;;14.10;99.90;;;;;;6216107;23;20051;-71
2022/07/05 01:54:43;;;;;;;5.05;2.75;;;14.00;99.90;;;;;;6216096;23;20434;-71
2022/07/05 01:57:08;;;;;;;;;;;14.00;99.90;;;;;;6216228;23;20327;-70
2022/07/05 01:59:36;;;;;;;5.40;2.30;;;14.10;99.90;;;;;;6215845;23;20047;-70
2022/07/05 02:02:03;;;;;;;7.05;3.10;;;14.00;99.90;;;;;;6188680;23;20017;-70
2022/07/05 02:04:30;;;;;;;6.18;2.67;;;14.00;99.90;;;;;;6189441;23;20016;-70
2022/07/05 02:06:56;;;;;;;;;;;14.00;99.90;;;;;;6216547;23;20446;-70
2022/07/05 02:09:22;;;;;;;2.75;2.03;;;14.00;99.90;;;;;;6189373;23;20314;-70
2022/07/05 02:11:47;;;;;;;5.00;2.92;;;14.00;99.90;;;;;;6189539;23;20026;-70
2022/07/05 02:14:13;;;;;;;5.00;2.40;;;14.00;99.90;;;;;;6189520;23;20382;-70
2022/07/05 02:16:39;;;;;;;3.40;2.35;;;14.00;99.90;;;;;;6216009;23;20055;-70
2022/07/05 02:19:04;;;;;;;5.43;2.45;;;13.90;99.90;;;;;;6215925;23;20027;-70
2022/07/05 02:21:30;;;;;;;3.95;2.20;;;14.20;99.90;;;;;;6216011;23;20398;-70
2022/07/05 02:23:56;;;;;;;3.78;2.30;;;13.80;99.90;;;;;;6215972;23;20099;-70
2022/07/05 02:26:21;;;;;;;3.83;2.22;;;13.80;99.90;;;;;;6189513;23;20026;-70
2022/07/05 02:28:48;;;;;;;3.08;2.28;;;13.80;99.90;;;;;;6215905;23;20329;-70
2022/07/05 02:31:16;;;;;;;4.80;2.65;;;13.80;99.90;;;;;;6189422;23;20016;-70
2022/07/05 02:33:42;;;;;;;4.57;2.17;;;13.70;99.90;;;;;;6215944;23;20027;-70
2022/07/05 02:36:12;;;;;;;3.97;2.45;;;13.80;99.90;;;;;;6215907;23;20095;-70
2022/07/05 02:38:39;;;;;;;3.47;2.42;;;13.70;99.90;;;;;;6215869;23;20063;-70
2022/07/05 02:41:08;;;;;;;3.15;2.30;;;13.70;99.90;;;;;;6215710;23;20100;-70
2022/07/05 02:43:34;;;;;;;4.10;2.53;;;13.70;99.90;;;;;;6189209;23;20031;-69
2022/07/05 02:46:01;;;;;;;6.13;3.25;;;13.70;99.90;;;;;;6215973;23;20028;-70
2022/07/05 02:48:26;;;;;;;3.58;2.67;;;13.70;99.90;;;;;;6215908;23;20012;-70
2022/07/05 02:50:52;;;;;;;4.20;2.92;;;13.70;99.90;;;;;;6215792;23;20350;-70
2022/07/05 02:53:18;;;;;;;6.03;2.58;;;13.70;99.90;;;;;;6215810;23;20337;-70
2022/07/05 02:55:43;;;;;;;4.53;2.85;;;13.60;99.90;;;;;;6215960;23;20461;-70
2022/07/05 02:58:09;;;;;;;5.30;2.83;;;13.70;99.90;;;;;;6188874;23;20023;-71
2022/07/05 03:00:35;;;;;;;5.07;2.50;;;13.60;99.90;;;;;;6215858;23;20036;-70
2022/07/05 03:03:00;;;;;;;6.07;2.40;;;13.60;99.90;;;;;;6217526;23;20493;-70
2022/07/05 03:05:26;;;;;;;4.38;2.60;;;13.60;99.90;;;;;;6191231;23;20318;-70
2022/07/05 03:07:52;;;;;;;5.82;2.67;;;13.60;99.90;;;;;;6217717;23;20055;-70
2022/07/05 03:10:17;;;;;;;3.63;2.60;;;13.60;99.90;;;;;;6217455;23;20017;-70
2022/07/05 03:12:43;;;;;;;4.47;2.33;;;13.60;99.90;;;;;;6217834;23;20025;-70
2022/07/05 03:15:09;;;;;;;4.22;2.35;;;13.60;99.90;;;;;;6217887;23;20091;-70
2022/07/05 03:17:35;;;;;;;;;;;13.60;99.90;;;;;;6218261;23;20059;-70
2022/07/05 03:20:00;;;;;;;4.70;2.30;;;13.50;99.90;;;;;;6217624;23;19916;-70
2022/07/05 03:22:26;;;;;;;6.28;2.22;;;13.60;99.90;;;;;;6217579;23;20013;-70
2022/07/05 03:24:52;;;;;;;3.55;2.05;;;13.50;99.90;;;;;;6190696;23;20023;-70
2022/07/05 03:27:17;;;;;;;3.65;2.75;;;13.50;99.90;;;;;;6190670;23;20028;-70
2022/07/05 03:29:43;;;;;;;4.80;2.70;;;13.50;99.90;;;;;;6191105;23;20024;-70
2022/07/05 03:32:09;;;;;;;3.45;1.95;;;13.50;99.90;;;;;;6217602;23;20017;-69
2022/07/05 03:34:34;;;;;;;3.95;2.45;;;13.50;99.90;;;;;;6217534;23;20388;-70
2022/07/05 03:37:00;;;;;;;4.85;3.22;;;14.20;99.90;;;;;;6190857;23;20406;-70
2022/07/05 03:39:26;;;;;;;5.28;2.17;;;13.50;99.90;;;;;;6216765;23;20021;-70
2022/07/05 03:41:51;;;;;;;4.30;2.20;;;13.50;99.90;;;;;;6217396;23;20106;-70
2022/07/05 03:44:17;;;;;;;4.97;2.42;;;13.40;99.90;;;;;;6217422;23;20429;-70
2022/07/05 03:46:43;;;;;;;7.57;2.25;;;13.40;99.90;;;;;;6217473;23;20016;-70
2022/07/05 03:49:08;;;;;;;5.93;2.10;;;13.40;99.90;;;;;;6217424;23;20008;-70
2022/07/05 03:51:34;;;;;;;5.35;2.25;;;13.40;99.90;;;;;;6190639;23;20346;-69
2022/07/05 03:54:00;;;;;;;4.70;2.47;;;13.40;99.90;;;;;;6217409;23;20017;-70
2022/07/05 03:56:26;;;;;;;3.13;2.03;;;13.50;99.90;;;;;;6217396;23;20342;-70
2022/07/05 03:58:52;;;;;;;4.00;2.00;;;13.30;99.90;;;;;;6217196;23;20013;-70
2022/07/05 04:01:18;;;;;;;6.32;2.63;;;13.40;99.90;;;;;;6190719;23;20486;-70
2022/07/05 04:03:43;;;;;;;3.13;2.13;;;13.30;99.90;;;;;;6217610;23;20073;-70
2022/07/05 04:06:09;;;;;;;5.00;2.80;;;13.30;99.90;;;;;;6217261;23;20448;-70
2022/07/05 04:08:36;;;;;;;5.47;2.35;;;13.40;99.90;;;;;;6216890;23;20323;-70
2022/07/05 04:11:01;;;;;;;3.35;2.35;;;14.00;99.90;;;;;;6217226;23;20055;-70
2022/07/05 04:13:27;;;;;;;6.38;2.05;;;13.30;99.90;;;;;;6216581;23;20016;-70
2022/07/05 04:15:55;;;;;;;5.47;2.40;;;13.30;99.90;;;;;;6217121;23;20382;-70
2022/07/05 04:18:23;;;;;;;3.30;2.30;;;13.20;99.90;;;;;;6217003;23;20091;-70
2022/07/05 04:20:49;;;;;;;6.95;2.92;;;13.20;99.90;;;;;;6217437;23;20020;-70
2022/07/05 04:23:15;;;;;;;4.25;2.72;;;13.30;99.90;;;;;;6216996;23;20021;-70
2022/07/05 04:25:40;;;;;;;5.30;3.15;;;13.20;99.90;;;;;;6217049;23;20019;-70
2022/07/05 04:28:06;;;;;;;5.63;2.95;;;13.20;99.90;;;;;;6216954;23;20023;-70
2022/07/05 04:30:32;;;;;;;5.18;3.03;;;13.30;99.90;;;;;;6216993;23;20024;-70
2022/07/05 04:32:58;;;;;;;5.20;3.25;;;13.30;99.90;;;;;;6216938;23;20016;-70
2022/07/05 04:35:23;;;;;;;4.47;2.83;;;13.30;99.90;;;;;;6216922;23;20013;-70
2022/07/05 04:37:49;;;;;;;5.75;2.90;;;13.30;99.90;;;;;;6216723;23;20021;-70
2022/07/05 04:40:15;;;;;;;5.35;3.13;;;13.60;99.90;;;;;;6216679;23;20099;-70
2022/07/05 04:42:41;;;;;;;4.75;2.95;;;13.30;99.90;;;;;;6216804;23;20017;-70
2022/07/05 04:45:08;;;;;;;4.30;3.25;;;13.30;99.90;;;;;;6216973;23;20016;-70
2022/07/05 04:47:34;;;;;;;6.00;2.90;;;13.40;99.90;;;;;;6216821;23;20377;-70
2022/07/05 04:50:00;;;;;;;11.98;3.88;;;13.50;99.90;;;;;;6216852;23;20023;-70
2022/07/05 04:52:26;;;;;;;6.13;3.40;;;13.50;99.90;;;;;;6189802;23;20048;-70
2022/07/05 04:54:52;;;;;;;4.97;3.22;;;13.50;99.90;;;;;;6216682;23;20017;-70
2022/07/05 04:57:18;;;;;;;8.50;3.10;;;13.50;99.90;;;;;;6190236;23;20017;-70
2022/07/05 04:59:44;;;;;;;3.83;2.80;;;13.60;99.90;;;;;;6216634;23;20557;-70
2022/07/05 05:02:10;;;;;;;6.35;3.95;;;13.60;99.90;;;;;;6216693;23;20024;-70
2022/07/05 05:04:36;;;;;;;4.95;3.83;;;13.60;99.90;;;;;;6190080;23;20028;-69
2022/07/05 05:07:01;;;;;;;11.60;3.67;;;13.70;99.90;;;;;;6190254;23;20472;-70
2022/07/05 05:09:27;;;;;;;5.60;3.10;;;13.70;99.90;;;;;;6216545;23;20044;-70
2022/07/05 05:11:53;;;;;;;6.38;3.33;;;13.70;99.90;;;;;;6216557;23;20016;-70
2022/07/05 05:14:18;;;;;;;5.20;3.60;;;13.80;99.90;;;;;;6216641;23;20312;-70
2022/07/05 05:16:44;;;;;;;4.25;3.10;;;13.80;99.90;;;;;;6216498;23;20327;-70
2022/07/05 05:19:10;;;;;;;5.15;3.10;;;13.90;99.90;;;;;;6189837;23;20017;-71
2022/07/05 05:21:35;;;;;;;5.57;3.40;;;13.80;99.90;;;;;;6216529;23;20465;-70
2022/07/05 05:24:01;;;;;;;5.03;3.55;;;13.90;99.90;;;;;;6216349;23;20211;-70
2022/07/05 05:26:27;;;;;;;5.50;3.40;;;14.00;99.90;;;;;;6216524;23;20329;-70
2022/07/05 05:28:53;;;;;;;6.75;3.83;;;14.00;99.90;;;;;;6216441;23;20009;-70
2022/07/05 05:31:19;;;;;;;8.52;4.10;;;14.00;99.90;;;;;;6216390;23;20067;-69
2022/07/05 05:33:45;;;;;;;;;;;14.10;99.90;;;;;;6190266;23;20442;-70
2022/07/05 05:36:10;;;;;;;6.32;3.58;;;14.10;99.90;;;;;;6216406;23;20015;-70
2022/07/05 05:38:36;;;;;;;5.03;3.58;;;14.20;99.90;;;;;;6215658;23;20334;-69
2022/07/05 05:41:02;;;;;;;6.15;3.75;;;14.20;99.90;;;;;;6216127;23;20024;-70
2022/07/05 05:43:28;;;;;;;5.85;3.55;;;14.30;99.90;;;;;;6189567;23;20012;-70
2022/07/05 05:45:53;;;;;;;5.18;3.58;;;14.30;99.90;;;;;;6189839;23;20020;-70
2022/07/05 05:48:20;;;;;;;6.20;3.58;;;14.40;99.90;;;;;;6216335;23;20020;-70
2022/07/05 05:50:46;;;;;;;6.43;3.55;;;14.40;99.90;;;;;;6189361;23;20070;-70
2022/07/05 05:53:12;;;;;;;5.47;3.22;;;14.50;99.90;;;;;;6216099;23;20043;-70
2022/07/05 05:55:38;;;;;;;5.80;3.38;;;14.50;99.90;;;;;;6216188;23;20446;-69
2022/07/05 05:58:14;;;;;;;8.93;3.15;;;14.60;99.90;;;;;;6216232;23;20016;-70
2022/07/05 06:00:41;;;;;;;4.60;3.13;;;14.90;99.90;;;;;;6216228;23;20016;-70
2022/07/05 06:03:07;;;;;;;6.75;3.03;;;14.70;99.90;;;;;;6215742;23;20454;-70
2022/07/05 06:05:33;;;;;;;4.60;3.15;;;14.80;99.90;;;;;;6216095;23;20022;-70
2022/07/05 06:07:58;;;;;;;5.68;2.90;;;14.90;99.90;;;;;;6189586;23;20020;-70
2022/07/05 06:10:26;;;;;;;5.53;3.78;;;14.90;99.90;;;;;;6216062;23;20021;-70
2022/07/05 06:12:53;;;;;;;4.63;3.05;;;15.00;99.90;;;;;;6215721;23;20471;-70
2022/07/05 06:15:20;;;;;;;4.85;2.60;;;15.00;99.90;;;;;;6216224;23;20071;-70
2022/07/05 06:17:46;;;;;;;3.58;2.88;;;15.10;99.90;;;;;;6215983;23;20056;-71
2022/07/05 06:20:18;;;;;;;5.90;2.95;;;15.20;99.90;;;;;;6215922;23;20013;-70
2022/07/05 06:22:44;;;;;;;5.68;2.65;;;15.20;99.90;;;;;;6215785;23;20016;-70
2022/07/05 06:25:10;;;;;;;4.30;2.30;;;15.30;99.90;;;;;;6215970;23;20022;-70
2022/07/05 06:27:40;;;;;;;;;;;15.40;99.90;;;;;;6216026;23;20454;-70
2022/07/05 06:30:07;;;;;;;5.32;2.30;;;15.40;99.90;;;;;;6215957;23;19923;-70
2022/07/05 06:32:32;;;;;;;3.72;1.95;;;15.50;99.90;;;;;;6216285;23;20030;-70
2022/07/05 06:34:58;;;;;;;4.82;2.50;;;15.50;99.90;;;;;;6163946;23;20056;-71
2022/07/05 06:37:23;;;;;;;3.50;1.98;;;15.60;99.90;;;;;;6188544;23;20052;-70
2022/07/05 06:39:49;;;;;;;2.83;1.80;;;15.70;99.90;;;;;;6215672;23;20513;-71
2022/07/05 06:42:16;;;;;;;3.90;1.60;;;15.70;99.90;;;;;;6215773;23;20025;-70
2022/07/05 06:44:41;;;;;;;;;;;15.80;99.90;;;;;;6216507;23;20016;-70
2022/07/05 06:47:07;;;;;;;2.78;1.58;;;15.80;99.90;;;;;;6215814;23;19923;-70
2022/07/05 06:49:33;;;;;;;4.05;1.83;;;15.90;99.90;;;;;;6215886;23;20021;-70
2022/07/05 06:51:59;;;;;;;2.80;2.17;;;15.90;99.90;;;;;;6215916;23;20102;-71
2022/07/05 06:54:24;;;;;;;4.70;1.48;;;16.00;99.90;;;;;;6189483;23;20025;-70
2022/07/05 06:56:50;;;;;;;5.25;1.60;;;16.30;99.90;;;;;;6215916;23;20338;-70
2022/07/05 06:59:16;;;;;;;6.38;1.40;;;16.10;99.90;;;;;;6188180;23;20434;-70
2022/07/05 07:01:41;;;;;;;1.75;1.20;;;16.20;99.90;;;;;;6189008;23;20017;-71
2022/07/05 07:04:07;;;;;;;2.88;1.30;;;16.20;99.90;;;;;;6215830;23;20016;-70
2022/07/05 07:06:32;;;;;;;4.68;1.58;;;16.30;99.90;;;;;;6215865;23;20023;-70
2022/07/05 07:11:42;;;;;;;2.70;1.20;;;16.40;99.90;;;;;;6215722;23;20032;-70
2022/07/05 07:14:08;;;;;;;1.80;0.93;;;16.50;99.90;;;;;;6215807;23;20012;-70
2022/07/05 07:16:33;;;;;;;2.20;1.13;;;16.50;99.90;;;;;;6189255;23;20039;-70
2022/07/05 07:19:00;;;;;;;3.97;0.90;;;16.60;99.90;;;;;;6215616;23;20452;-71
2022/07/05 07:21:25;;;;;;;3.88;0.93;;;16.70;99.90;;;;;;6215625;23;20013;-70
2022/07/05 07:23:51;;;;;;;4.35;0.85;;;16.70;99.90;;;;;;6215640;23;20106;-72
2022/07/05 07:26:17;;;;;;;2.88;0.77;;;16.80;99.90;;;;;;6215727;23;20122;-70
2022/07/05 07:28:42;;;;;;;2.28;1.00;;;16.80;99.90;;;;;;6215673;23;20017;-70
2022/07/05 07:31:08;;;;;;;3.20;0.75;;;16.80;99.90;;;;;;6215645;23;20017;-70
2022/07/05 07:33:34;;;;;;;5.00;0.60;;;16.90;99.90;;;;;;6215643;23;20020;-71
2022/07/05 07:36:00;;;;;;;1.52;0.80;;;17.00;99.90;;;;;;6215557;23;20418;-71
2022/07/05 07:38:25;;;;;;;2.05;0.80;;;17.00;99.90;;;;;;6215503;23;20091;-70
2022/07/05 07:40:52;;;;;;;3.92;0.90;;;17.10;99.90;;;;;;6215502;23;20020;-70
2022/07/05 07:43:17;;;;;;;2.78;0.50;;;17.10;99.90;;;;;;6215489;23;20025;-71
2022/07/05 07:45:43;;;;;;;3.58;0.60;;;17.10;99.90;;;;;;6215615;23;20099;-71
2022/07/05 07:48:09;;;;;;;1.95;0.68;;;17.20;99.90;;;;;;6215714;23;20021;-71
2022/07/05 07:50:35;;;;;;;1.15;0.60;;;17.20;99.90;;;;;;6217471;23;20017;-70
2022/07/05 07:53:01;;;;;;;2.00;0.70;;;17.30;99.90;;;;;;6217209;23;20020;-70
2022/07/05 07:55:26;;;;;;;2.30;0.80;;;17.30;99.90;;;;;;6217447;23;20174;-71
2022/07/05 07:57:52;;;;;;;1.52;0.73;;;17.40;99.90;;;;;;6217382;23;20023;-70
2022/07/05 08:00:18;;;;;;;7.13;0.70;;;17.30;99.90;;;;;;6217569;23;20087;-71
2022/07/05 08:02:44;;;;;;;4.53;0.95;;;17.40;99.90;;;;;;6217273;23;20021;-70
2022/07/05 08:05:10;;;;;;;1.65;0.80;;;17.50;99.90;;;;;;6217238;23;20017;-70
2022/07/05 08:07:36;;;;;;;3.45;0.70;;;17.40;99.90;;;;;;6217347;23;20092;-71
2022/07/05 08:10:06;;;;;;;3.20;0.70;;;17.50;99.90;;;;;;6217128;23;20044;-70
2022/07/05 08:12:31;;;;;;;5.30;1.20;;;17.50;99.90;;;;;;6216420;23;20023;-71
2022/07/05 08:14:57;;;;;;;2.30;1.00;;;17.50;99.90;;;;;;6216074;23;20344;-71
2022/07/05 08:17:23;;;;;;;2.22;0.80;;;17.50;99.90;;;;;;6217024;23;20016;-72
2022/07/05 08:22:46;;;;;;;1.25;0.73;;;17.50;99.90;;;;;;6154302;23;20089;-73
2022/07/05 08:25:14;;;;;;;2.60;0.70;;;17.60;99.90;;;;;;6154370;23;20051;-71
2022/07/05 08:27:39;;;;;;;0.90;0.80;;;17.60;99.90;;;;;;6154313;23;20017;-71
2022/07/05 08:30:06;;;;;;;5.55;2.30;;;17.70;99.90;;;;;;6153814;23;20448;-71
2022/07/05 08:32:32;;;;;;;1.15;0.55;;;17.70;99.90;;;;;;6129232;23;20072;-72
2022/07/05 08:34:57;;;;;;;4.38;0.70;;;17.70;99.90;;;;;;6153859;23;20463;-71
2022/07/05 08:37:23;;;;;;;2.67;0.65;;;17.80;99.90;;;;;;6152978;23;20021;-70
2022/07/05 08:39:49;;;;;;;2.13;0.90;;;17.80;99.90;;;;;;6154023;23;20029;-71
2022/07/05 08:42:14;;;;;;;3.28;0.75;;;17.90;99.90;;;;;;6128730;23;20028;-71
2022/07/05 08:44:43;;;;;;;4.47;0.60;;;17.90;99.90;;;;;;6153554;23;20021;-70
2022/07/05 08:47:11;;;;;;;3.67;0.70;;;17.90;99.90;;;;;;6129559;23;20024;-70
2022/07/05 08:49:40;;;;;;;2.33;0.60;;;18.00;99.90;;;;;;6153781;23;20470;-71
2022/07/05 08:52:10;;;;;;;1.40;0.50;;;18.00;99.90;;;;;;6152669;23;20052;-73
2022/07/05 08:54:37;;;;;;;4.57;0.70;;;18.10;99.90;;;;;;6152803;23;20414;-70
2022/07/05 08:57:03;;;;;;;1.67;0.60;;;18.10;99.90;;;;;;6152876;23;20017;-71
2022/07/05 08:59:29;;;;;;;2.72;0.70;;;18.20;99.90;;;;;;6214095;23;20031;-71
2022/07/05 09:01:56;;;;;;;1.90;0.73;;;18.20;99.90;;;;;;6216911;23;20021;-71
2022/07/05 09:04:29;;;;;;;3.15;1.10;;;18.20;99.90;;;;;;6216417;23;20074;-71
2022/07/05 09:06:59;;;;;;;2.15;0.80;;;18.20;99.90;;;;;;6189567;23;20029;-71
2022/07/05 09:09:26;;;;;;;3.70;0.70;;;18.10;99.90;;;;;;6215970;23;20536;-70
2022/07/05 09:11:52;;;;;;;5.10;1.52;;;18.00;99.90;;;;;;6216398;23;20016;-71
2022/07/05 09:14:23;;;;;;;1.35;0.70;;;17.90;99.90;;;;;;6216489;23;20056;-70
2022/07/05 09:16:49;;;;;;;3.05;0.77;;;17.80;99.90;;;;;;6164313;23;20055;-71
2022/07/05 09:19:15;;;;;;;1.30;0.70;;;17.70;99.90;;;;;;6216353;23;20012;-71
2022/07/05 09:21:40;;;;;;;1.65;0.65;;;17.60;99.90;;;;;;6216374;23;20051;-71
2022/07/05 09:24:09;;;;;;;1.77;0.55;;;17.60;99.90;;;;;;6216581;23;20059;-71
2022/07/05 09:26:40;;;;;;;2.25;0.60;;;17.60;99.90;;;;;;6189696;23;20554;-71
2022/07/05 09:29:11;;;;;;;3.63;0.55;;;17.50;99.90;;;;;;6216309;23;20012;-70
2022/07/05 09:31:39;;;;;;;4.93;0.80;;;17.60;99.90;;;;;;6216308;23;20051;-70
2022/07/05 09:34:08;;;;;;;1.63;0.85;;;17.60;99.90;;;;;;6215097;23;20020;-70
2022/07/05 09:36:48;;;;;;;1.00;0.40;;;17.60;99.90;;;;;;6216097;23;20020;-71
2022/07/05 09:39:14;;;;;;;2.47;0.75;;;17.70;99.90;;;;;;6215092;23;20319;-71
2022/07/05 09:41:39;;;;;;;1.40;0.50;;;17.70;99.90;;;;;;6216069;23;20062;-70
2022/07/05 09:44:05;;;;;;;3.08;0.50;;;17.80;99.90;;;;;;6216225;23;20017;-70
2022/07/05 09:46:31;;;;;;;2.15;0.60;;;17.90;99.90;;;;;;6189543;23;20095;-70
2022/07/05 09:48:57;;;;;;;4.57;0.90;;;17.90;99.90;;;;;;6216003;23;20016;-70
2022/07/05 09:51:24;;;;;;;2.58;0.90;;;17.90;99.90;;;;;;6216027;23;20013;-70
2022/07/05 09:53:52;;;;;;;2.92;0.60;;;17.90;99.90;;;;;;6215913;23;20021;-71
2022/07/05 09:56:18;;;;;;;1.08;0.60;;;17.90;99.90;;;;;;6138007;23;20021;-71
2022/07/05 09:58:44;;;;;;;0.93;0.50;;;17.90;99.90;;;;;;6189284;23;20307;-71
2022/07/05 10:01:43;;;;;;;1.70;0.68;;;17.90;99.90;;;;;;6188840;23;20020;-71
2022/07/05 10:04:09;;;;;;;3.38;0.90;;;18.00;99.90;;;;;;6065514;23;20392;-70
2022/07/05 10:06:34;;;;;;;4.43;0.95;;;18.10;99.90;;;;;;6065527;23;20031;-70
2022/07/05 10:09:01;;;;;;;2.40;0.70;;;18.20;99.90;;;;;;6065566;23;20015;-71
2022/07/05 10:11:29;;;;;;;;;;;18.30;99.90;;;;;;6065725;23;20022;-71
2022/07/05 10:13:55;;;;;;;3.35;0.70;;;18.30;99.90;;;;;;6065361;23;20340;-71
2022/07/05 10:16:22;;;;;;;1.30;0.70;;;18.50;99.90;;;;;;6065715;23;20030;-71
2022/07/05 10:18:54;;;;;;;3.50;0.70;;;18.60;99.90;;;;;;6065448;23;20014;-71
2022/07/05 10:21:20;;;;;;;3.20;0.80;;;18.60;99.90;;;;;;6065529;23;20029;-71
2022/07/05 10:23:55;;;;;;;1.85;0.50;;;18.80;99.90;;;;;;6065403;23;20058;-71
2022/07/05 10:26:22;;;;;;;1.55;0.60;;;18.80;99.90;;;;;;6065279;23;20057;-70
2022/07/05 10:28:50;;;;;;;1.30;0.60;;;18.70;99.90;;;;;;6041304;23;20033;-71
2022/07/05 10:31:17;;;;;;;2.30;0.60;;;18.60;99.90;;;;;;6041598;23;20023;-71
2022/07/05 10:33:43;;;;;;;1.92;0.60;;;18.40;99.90;;;;;;6065412;23;20041;-70
2022/07/05 10:36:13;;;;;;;2.58;0.70;;;18.30;99.90;;;;;;6041233;23;20078;-70
2022/07/05 10:38:42;;;;;;;2.22;0.95;;;18.20;99.90;;;;;;6072166;23;20033;-71
2022/07/05 10:41:10;;;;;;;1.40;0.70;;;18.20;99.90;;;;;;6185602;23;20021;-70
2022/07/05 10:43:37;;;;;;;3.25;0.70;;;18.20;99.90;;;;;;6185552;23;20013;-70
2022/07/05 10:46:07;;;;;;;0.77;0.60;;;18.30;99.90;;;;;;6185612;23;20089;-71
2022/07/05 10:48:33;;;;;;;1.55;0.57;;;18.20;99.90;;;;;;6185571;23;20017;-71
2022/07/05 10:51:16;;;;;;;1.48;0.50;;;18.20;99.90;;;;;;6185456;23;20450;-70
2022/07/05 10:53:42;;;;;;;2.63;0.52;;;18.20;99.90;;;;;;6159167;23;20017;-71
2022/07/05 10:56:08;;;;;;;4.80;1.23;;;18.20;99.90;;;;;;6185353;23;20024;-71
2022/07/05 10:58:36;;;;;;;3.38;0.88;;;18.20;99.90;;;;;;6185566;23;20021;-70
2022/07/05 11:01:19;;;;;;;1.85;0.75;;;18.30;99.90;;;;;;6184953;23;20450;-72
2022/07/05 11:04:00;;;;;;;2.17;0.80;;;18.30;99.90;;;;;;6185554;23;20025;-71
2022/07/05 11:06:39;;;;;;;1.02;0.60;;;18.30;99.90;;;;;;6185545;23;20393;-70
2022/07/05 11:09:11;;;;;;;3.40;0.60;;;18.40;99.90;;;;;;6184894;23;20528;-70
2022/07/05 11:11:52;;;;;;;1.13;0.50;;;18.40;99.90;;;;;;6159175;23;20067;-71
2022/07/05 11:14:20;;;;;;;2.85;0.65;;;18.40;99.90;;;;;;6158964;23;20061;-71
2022/07/05 11:16:47;;;;;;;1.60;0.75;;;18.30;99.90;;;;;;6185111;23;20451;-71
2022/07/05 11:19:17;;;;;;;3.70;0.90;;;18.30;99.90;;;;;;6158785;23;20447;-71
2022/07/05 11:22:01;;;;;;;1.63;0.80;;;18.40;99.90;;;;;;6159880;23;20092;-71
2022/07/05 11:24:28;;;;;;;1.45;0.70;;;18.40;99.90;;;;;;6187219;23;20052;-71
2022/07/05 11:26:59;;;;;;;0.85;0.50;;;18.40;99.90;;;;;;6187467;23;20021;-71
2022/07/05 11:29:44;;;;;;;1.98;0.60;;;18.40;99.90;;;;;;6187513;23;20708;-71
2022/07/05 11:32:15;;;;;;;2.63;0.70;;;18.40;99.90;;;;;;6187336;23;20028;-70
2022/07/05 11:34:52;;;;;;;1.50;0.70;;;18.40;99.90;;;;;;6187327;23;20017;-71
2022/07/05 11:37:34;;;;;;;1.42;0.70;;;18.40;99.90;;;;;;6189720;23;20013;-71
2022/07/05 11:40:05;;;;;;;1.80;0.85;;;18.40;99.90;;;;;;6216559;23;20024;-71
2022/07/05 11:42:31;;;;;;;1.90;0.63;;;19.20;99.90;;;;;;6217184;23;20023;-71
2022/07/05 11:44:57;;;;;;;;;;;18.50;99.90;;;;;;6217738;23;20509;-71
2022/07/05 11:47:23;;;;;;;0.68;0.60;;;18.50;99.90;;;;;;6217097;23;19958;-71
2022/07/05 11:49:56;;;;;;;2.08;0.68;;;18.50;99.90;;;;;;6217068;23;20083;-71
2022/07/05 11:52:28;;;;;;;1.13;0.80;;;18.50;99.90;;;;;;6217046;23;20016;-72
2022/07/05 11:54:54;;;;;;;1.42;0.65;;;18.50;99.90;;;;;;6216966;23;20032;-72
2022/07/05 11:57:20;;;;;;;1.70;0.63;;;18.60;99.90;;;;;;6216993;23;20334;-71
2022/07/05 11:59:47;;;;;;;1.95;0.40;;;18.70;99.90;;;;;;6190322;23;20469;-70
2022/07/05 12:02:13;;;;;;;1.80;0.57;;;18.80;99.90;;;;;;6190458;23;20016;-70
2022/07/05 12:04:39;;;;;;;1.48;0.50;;;18.80;99.90;;;;;;6217012;23;20020;-71
2022/07/05 12:07:05;;;;;;;2.40;0.70;;;18.90;99.90;;;;;;6216987;23;20020;-71
2022/07/05 12:12:42;;;;;;;1.67;0.80;;;19.00;99.90;;;;;;6216726;23;20139;-71
2022/07/05 12:15:12;;;;;;;1.67;0.52;;;19.10;99.90;;;;;;6189835;23;20024;-71
2022/07/05 12:17:43;;;;;;;1.80;0.95;;;19.10;99.90;;;;;;6216792;23;20020;-70
2022/07/05 12:20:13;;;;;;;0.82;0.50;;;19.10;99.90;;;;;;6216685;23;20074;-71
2022/07/05 12:22:42;;;;;;;1.13;0.52;;;19.00;99.90;;;;;;6190316;23;20099;-71
2022/07/05 12:25:11;;;;;;;1.00;0.50;;;19.00;99.90;;;;;;6216522;23;20016;-71
2022/07/05 12:27:39;;;;;;;2.72;0.57;;;19.00;99.90;;;;;;6216748;23;20024;-70
2022/07/05 12:30:06;;;;;;;1.05;0.50;;;18.90;99.90;;;;;;6216825;23;20021;-71
2022/07/05 12:32:32;;;;;;;2.30;0.77;;;18.80;99.90;;;;;;6216625;23;20013;-71
2022/07/05 12:34:59;;;;;;;2.20;0.70;;;18.70;99.90;;;;;;6216244;23;20023;-71
2022/07/05 12:37:26;;;;;;;0.93;0.60;;;18.60;99.90;;;;;;6216439;23;20023;-71
2022/07/05 12:40:05;;;;;;;2.88;0.60;;;18.60;99.90;;;;;;6189914;23;20019;-71
2022/07/05 12:42:35;;;;;;;0.73;0.40;;;18.60;99.90;;;;;;6216252;23;20027;-71
2022/07/05 12:45:12;;;;;;;1.50;0.50;;;18.60;99.90;;;;;;6216816;23;20056;-72
2022/07/05 12:47:53;;;;;;;3.45;0.73;;;18.70;99.90;;;;;;6216612;23;20373;-71
2022/07/05 12:50:20;;;;;;;3.55;0.52;;;18.80;99.90;;;;;;6216610;23;20066;-71
2022/07/05 12:59:00;;;;;;;7.63;1.02;;;18.90;99.90;;;;;;6037443;23;20038;-71
2022/07/05 13:01:28;;;;;;;4.22;1.00;;;18.90;99.90;;;;;;6037471;23;20019;-71
2022/07/05 13:04:12;;;;;;;1.10;0.60;;;18.90;99.90;;;;;;6037601;23;20023;-71
2022/07/05 13:06:54;;;;;;;1.55;0.73;;;18.80;99.90;;;;;;6013796;23;20106;-71
2022/07/05 13:09:30;;;;;;;1.45;0.65;;;18.80;99.90;;;;;;6037226;23;20094;-71